Time;durP1;ratioP1;P1;durP2;ratioP2;P2;SDS_P1;SDS_P2;PMS_P1;PMS_P2;Temp;Humidity;BMP_temperature;BMP_pressure;BME280_temperature;BME280_humidity;BME280_pressure;Samples;Min_cycle;Max_cycle;Signal;HPM_P1;HPM_P2
2022/11/25 00:01:42;;;;;;;29.70;19.67;;;;;;;3.56;99.54;101009.19;7396189;19;20011;-69
2022/11/25 00:04:20;;;;;;;29.50;19.38;;;;;;;3.57;99.56;101004.00;7399886;19;20044;-70
2022/11/25 00:06:48;;;;;;;31.33;18.92;;;;;;;3.56;99.45;101012.66;7398176;19;20014;-69
2022/11/25 00:09:17;;;;;;;27.90;19.50;;;;;;;3.53;99.65;101004.81;7399243;19;20014;-69
2022/11/25 00:11:45;;;;;;;33.85;20.23;;;;;;;3.56;99.73;101011.78;7397480;19;20026;-69
2022/11/25 00:14:16;;;;;;;33.35;20.20;;;;;;;3.56;99.65;101014.38;7399079;19;20015;-69
2022/11/25 00:16:45;;;;;;;30.88;19.88;;;;;;;3.56;99.80;101011.78;7399251;19;20022;-69
2022/11/25 00:19:13;;;;;;;34.13;20.20;;;;;;;3.57;99.67;101016.97;7398768;19;20014;-69
2022/11/25 00:21:44;;;;;;;34.08;20.63;;;;;;;3.59;99.74;101009.22;7397770;19;20032;-69
2022/11/25 00:24:16;;;;;;;30.67;20.13;;;;;;;3.61;99.70;101012.69;7397002;19;20014;-69
2022/11/25 00:26:44;;;;;;;32.75;20.27;;;;;;;3.63;100.00;101005.81;7397695;19;20023;-68
2022/11/25 00:29:15;;;;;;;34.78;21.10;;;;;;;3.66;99.73;101010.16;7396161;19;20010;-71
2022/11/25 00:31:44;;;;;;;39.70;21.08;;;;;;;3.68;100.00;101017.09;7396240;19;20346;-70
2022/11/25 00:34:15;;;;;;;39.05;22.77;;;;;;;3.70;99.89;101011.91;7398290;19;20036;-68
2022/11/25 00:36:46;;;;;;;34.67;21.63;;;;;;;3.71;99.99;101009.34;7398336;19;20387;-68
2022/11/25 00:39:17;;;;;;;36.50;22.23;;;;;;;3.75;100.00;101013.72;7396672;19;20031;-68
2022/11/25 00:44:39;;;;;;;47.38;24.27;;;;;;;3.81;99.96;101001.66;7398234;19;20036;-68
2022/11/25 00:47:10;;;;;;;34.70;23.00;;;;;;;3.82;100.00;101004.28;7395567;19;20090;-67
2022/11/25 00:49:39;;;;;;;37.28;22.23;;;;;;;3.85;100.00;101001.69;7397828;19;20359;-68
2022/11/25 00:52:12;;;;;;;34.70;22.02;;;;;;;3.87;100.00;101004.34;7396107;19;20082;-68
2022/11/25 00:54:40;;;;;;;36.50;21.25;;;;;;;3.90;100.00;101006.94;7396337;19;20015;-71
2022/11/25 00:57:09;;;;;;;36.55;21.85;;;;;;;3.91;100.00;101006.09;7395275;19;20445;-67
2022/11/25 00:59:37;;;;;;;35.78;20.60;;;;;;;3.93;100.00;101007.00;7395591;19;20014;-67
2022/11/25 01:02:06;;;;;;;33.95;20.83;;;;;;;3.95;100.00;101001.81;7394963;19;20018;-66
2022/11/25 01:04:35;;;;;;;35.95;20.77;;;;;;;3.96;100.00;101007.00;7395144;19;20396;-66
2022/11/25 01:07:03;;;;;;;40.13;21.88;;;;;;;3.99;100.00;101008.75;7395919;19;20015;-67
2022/11/25 01:09:36;;;;;;;33.17;21.27;;;;;;;4.00;100.00;101016.56;7395035;19;20383;-67
2022/11/25 01:12:05;;;;;;;34.45;21.48;;;;;;;4.02;100.00;101006.19;7395722;19;20022;-67
2022/11/25 01:14:35;;;;;;;36.85;20.83;;;;;;;4.02;100.00;101008.78;7395137;19;20106;-67
2022/11/25 01:17:03;;;;;;;38.38;19.95;;;;;;;4.05;100.00;101014.00;7396539;19;20430;-67
2022/11/25 01:19:32;;;;;;;39.20;19.17;;;;;;;4.06;100.00;101015.75;7396808;19;20346;-67
2022/11/25 01:22:01;;;;;;;33.45;19.58;;;;;;;4.06;100.00;101016.63;7395273;19;20040;-67
2022/11/25 01:24:29;;;;;;;35.58;20.90;;;;;;;4.07;100.00;101005.38;7394610;19;20493;-67
2022/11/25 01:27:00;;;;;;;41.72;20.58;;;;;;;4.08;100.00;101008.84;7395204;19;20018;-67
2022/11/25 01:29:29;;;;;;;39.30;20.23;;;;;;;4.10;100.00;101011.47;7396308;19;20031;-67
2022/11/25 01:31:58;;;;;;;39.08;20.77;;;;;;;4.11;100.00;101000.19;7394668;19;20506;-67
2022/11/25 01:34:30;;;;;;;39.13;19.75;;;;;;;4.11;100.00;101003.69;7396450;19;20417;-67
2022/11/25 01:36:59;;;;;;;35.83;19.80;;;;;;;4.13;100.00;101007.16;7396846;19;20019;-70
2022/11/25 01:39:28;;;;;;;37.30;20.27;;;;;;;4.14;100.00;101003.69;7395086;19;20018;-71
2022/11/25 01:41:56;;;;;;;37.17;20.42;;;;;;;4.15;100.00;101000.25;7394818;19;20070;-68
2022/11/25 01:44:30;;;;;;;36.85;19.92;;;;;;;4.16;100.00;101007.19;7395799;19;20013;-69
2022/11/25 01:47:05;;;;;;;37.22;21.05;;;;;;;4.18;100.00;101002.00;7395112;19;20085;-68
2022/11/25 01:49:40;;;;;;;32.83;20.17;;;;;;;4.17;100.00;101003.75;7394458;19;20035;-68
2022/11/25 01:52:15;;;;;;;36.55;19.60;;;;;;;4.17;100.00;101001.16;7394111;19;20036;-68
2022/11/25 01:54:53;;;;;;;36.58;19.88;;;;;;;4.17;100.00;100998.56;7396311;19;20019;-67
2022/11/25 01:57:26;;;;;;;35.67;20.60;;;;;;;4.18;100.00;101002.00;7395418;19;20019;-67
2022/11/25 02:00:01;;;;;;;37.45;20.08;;;;;;;4.19;100.00;101001.16;7395179;19;20363;-67
2022/11/25 02:02:30;;;;;;;34.03;19.52;;;;;;;4.18;100.00;100996.81;7396007;19;20018;-67
2022/11/25 02:05:00;;;;;;;33.33;19.70;;;;;;;4.19;100.00;101003.75;7395521;19;20035;-67
2022/11/25 02:07:33;;;;;;;34.30;20.05;;;;;;;4.18;100.00;100992.50;7393747;19;20014;-67
2022/11/25 02:10:03;;;;;;;38.72;18.92;;;;;;;4.20;100.00;101005.50;7395088;19;20022;-67
2022/11/25 02:12:33;;;;;;;30.55;17.30;;;;;;;4.20;100.00;101006.34;7396498;19;20027;-68
2022/11/25 02:15:06;;;;;;;32.67;18.33;;;;;;;4.20;100.00;100993.38;7393430;19;20036;-69
2022/11/25 02:17:35;;;;;;;33.00;17.98;;;;;;;4.19;100.00;100994.22;7397549;19;20015;-69
2022/11/25 02:20:06;;;;;;;32.67;18.70;;;;;;;4.21;100.00;100997.72;7397340;19;20027;-69
2022/11/25 02:22:46;;;;;;;33.25;17.45;;;;;;;4.20;100.00;100995.97;7395920;19;20019;-67
2022/11/25 02:25:21;;;;;;;28.98;17.52;;;;;;;4.21;100.00;100995.13;7393518;19;20039;-67
2022/11/25 02:27:54;;;;;;;37.65;18.08;;;;;;;4.20;100.00;100990.78;7392934;19;20019;-67
2022/11/25 02:30:22;;;;;;;29.02;18.00;;;;;;;4.21;100.00;100981.28;7392865;19;20379;-67
2022/11/25 02:32:51;;;;;;;34.28;18.00;;;;;;;4.23;100.00;100982.13;7394353;19;20031;-67
2022/11/25 02:35:33;;;;;;;33.75;18.48;;;;;;;4.21;100.00;100976.06;7392339;19;20027;-67
2022/11/25 02:38:08;;;;;;;35.42;18.80;;;;;;;4.21;100.00;100976.94;7393150;19;20035;-67
2022/11/25 02:40:44;;;;;;;37.45;19.75;;;;;;;4.22;100.00;100977.78;7393679;19;20031;-67
2022/11/25 02:43:13;;;;;;;34.97;19.23;;;;;;;4.22;100.00;100983.88;7394223;19;20027;-67
2022/11/25 02:45:50;;;;;;;33.53;19.73;;;;;;;4.21;100.00;100991.66;7392092;19;20514;-67
2022/11/25 02:48:19;;;;;;;36.95;18.55;;;;;;;4.21;100.00;100987.31;7392572;19;20022;-67
2022/11/25 02:50:47;;;;;;;33.63;19.08;;;;;;;4.21;100.00;100983.88;7393175;19;20371;-67
2022/11/25 02:53:16;;;;;;;31.13;18.63;;;;;;;4.22;100.00;100990.78;7394245;19;20019;-67
2022/11/25 02:55:47;;;;;;;34.58;18.95;;;;;;;4.23;100.00;100997.72;7391742;19;20488;-66
2022/11/25 02:58:16;;;;;;;35.17;18.33;;;;;;;4.23;100.00;101002.91;7393846;19;20022;-67
2022/11/25 03:00:45;;;;;;;32.17;18.17;;;;;;;4.23;100.00;100997.72;7392949;19;20014;-66
2022/11/25 03:03:14;;;;;;;34.83;18.98;;;;;;;4.22;100.00;100999.47;7391971;19;20022;-66
2022/11/25 03:05:43;;;;;;;32.80;18.05;;;;;;;4.23;100.00;100996.00;7394019;19;20027;-66
2022/11/25 03:08:12;;;;;;;29.70;17.33;;;;;;;4.24;100.00;100996.88;7391445;19;20541;-67
2022/11/25 03:10:41;;;;;;;30.15;18.05;;;;;;;4.23;100.00;100997.72;7393007;19;20040;-67
2022/11/25 03:13:13;;;;;;;34.78;19.13;;;;;;;4.25;100.00;101006.41;7394058;19;20022;-67
2022/11/25 03:15:41;;;;;;;34.53;18.73;;;;;;;4.26;100.00;101015.94;7395079;19;20011;-67
2022/11/25 03:18:10;;;;;;;35.92;19.05;;;;;;;4.23;100.00;101011.59;7394822;19;20036;-67
2022/11/25 03:20:39;;;;;;;41.05;19.77;;;;;;;4.24;100.00;101015.03;7395269;19;20022;-67
2022/11/25 03:23:08;;;;;;;36.15;19.48;;;;;;;4.23;100.00;101015.91;7400796;19;20023;-67
2022/11/25 03:25:37;;;;;;;38.30;19.70;;;;;;;4.22;100.00;101015.03;7400764;19;20043;-67
2022/11/25 03:28:06;;;;;;;38.78;20.10;;;;;;;4.22;100.00;101017.63;7397654;19;20015;-67
2022/11/25 03:30:37;;;;;;;39.05;19.80;;;;;;;4.22;100.00;101014.16;7399857;19;20047;-68
2022/11/25 03:33:06;;;;;;;38.63;21.55;;;;;;;4.23;100.00;101019.38;7400518;19;20022;-68
2022/11/25 03:35:34;;;;;;;38.72;21.27;;;;;;;4.25;100.00;101019.38;7399823;19;20019;-68
2022/11/25 03:38:03;;;;;;;39.65;20.77;;;;;;;4.26;100.00;101020.25;7397672;19;20018;-68
2022/11/25 03:40:31;;;;;;;38.47;21.67;;;;;;;4.27;100.00;101022.84;7399545;19;20022;-67
2022/11/25 03:42:59;;;;;;;38.80;20.10;;;;;;;4.28;100.00;101019.41;7400205;19;20023;-68
2022/11/25 03:45:28;;;;;;;33.65;20.83;;;;;;;4.27;100.00;101015.06;7399801;19;20380;-68
2022/11/25 03:47:59;;;;;;;42.45;21.25;;;;;;;4.29;100.00;101015.94;7397883;19;20484;-68
2022/11/25 03:50:28;;;;;;;36.78;20.17;;;;;;;4.29;100.00;101021.16;7399682;19;20145;-68
2022/11/25 03:52:56;;;;;;;36.13;19.77;;;;;;;4.30;100.00;101022.03;7397123;19;20011;-67
2022/11/25 03:55:24;;;;;;;37.03;20.27;;;;;;;4.31;100.00;101022.03;7399728;19;20036;-68
2022/11/25 03:57:53;;;;;;;35.13;20.33;;;;;;;4.31;100.00;101021.16;7399511;19;20015;-67
2022/11/25 04:00:22;;;;;;;35.80;20.92;;;;;;;4.31;100.00;101028.94;7398161;19;20423;-67
2022/11/25 04:02:50;;;;;;;32.85;20.20;;;;;;;4.32;100.00;101025.50;7400046;19;20026;-68
2022/11/25 04:05:21;;;;;;;37.53;20.25;;;;;;;4.32;100.00;101028.09;7397123;19;20018;-68
2022/11/25 04:07:50;;;;;;;33.80;19.70;;;;;;;4.33;100.00;101024.66;7398160;19;20031;-67
2022/11/25 04:10:18;;;;;;;37.65;21.13;;;;;;;4.32;100.00;101023.78;7396762;19;20090;-67
2022/11/25 04:12:51;;;;;;;32.50;19.08;;;;;;;4.32;100.00;101023.78;7396596;19;20387;-67
2022/11/25 04:15:20;;;;;;;43.38;22.90;;;;;;;4.33;100.00;101022.91;7398699;19;20019;-67
2022/11/25 04:17:49;;;;;;;43.65;22.70;;;;;;;4.33;100.00;101014.25;7398179;19;20384;-67
2022/11/25 04:20:18;;;;;;;47.20;24.60;;;;;;;4.33;100.00;101019.44;7398104;19;20358;-68
2022/11/25 04:22:49;;;;;;;41.67;22.45;;;;;;;4.33;100.00;101020.31;7396337;19;20014;-67
2022/11/25 04:25:17;;;;;;;39.13;22.50;;;;;;;4.32;100.00;101021.19;7398382;19;20031;-67
2022/11/25 04:27:46;;;;;;;48.95;26.90;;;;;;;4.34;100.00;101018.59;7397088;19;20422;-67
2022/11/25 04:30:15;;;;;;;50.80;28.85;;;;;;;4.34;100.00;101022.06;7398195;19;20023;-67
2022/11/25 04:32:43;;;;;;;50.17;29.70;;;;;;;4.34;100.00;101021.19;7398106;19;20018;-68
2022/11/25 04:35:12;;;;;;;49.15;27.27;;;;;;;4.34;100.00;101027.25;7398233;19;20018;-68
2022/11/25 04:37:40;;;;;;;42.53;26.52;;;;;;;4.34;100.00;101018.59;7398083;19;20014;-68
2022/11/25 04:40:13;;;;;;;44.05;25.63;;;;;;;4.33;100.00;101024.66;7395936;19;20019;-67
2022/11/25 04:42:42;;;;;;;39.97;24.02;;;;;;;4.33;100.00;101025.50;7395625;19;20489;-69
2022/11/25 04:45:14;;;;;;;39.53;23.90;;;;;;;4.33;100.00;101020.31;7395999;19;20022;-68
2022/11/25 04:47:43;;;;;;;39.08;23.88;;;;;;;4.32;100.00;101023.78;7396454;19;20017;-68
2022/11/25 04:50:15;;;;;;;43.42;22.33;;;;;;;4.32;100.00;101023.78;7397267;19;20014;-67
2022/11/25 04:52:44;;;;;;;37.88;20.55;;;;;;;4.33;100.00;101024.66;7396168;19;20019;-68
2022/11/25 04:55:15;;;;;;;35.30;21.73;;;;;;;4.32;100.00;101022.91;7395322;19;20379;-68
2022/11/25 04:57:43;;;;;;;34.65;20.35;;;;;;;4.30;100.00;101027.22;7395984;19;20022;-68
2022/11/25 05:00:11;;;;;;;37.33;20.52;;;;;;;4.29;100.00;101021.16;7395079;19;20018;-67
2022/11/25 05:02:40;;;;;;;35.35;20.05;;;;;;;4.29;100.00;101020.28;7395550;19;20007;-66
2022/11/25 05:05:10;;;;;;;36.67;19.60;;;;;;;4.28;100.00;101019.41;7397300;19;20018;-67
2022/11/25 05:07:38;;;;;;;33.38;19.55;;;;;;;4.26;100.00;101018.53;7396264;19;20098;-66
2022/11/25 05:10:08;;;;;;;34.03;19.40;;;;;;;4.25;100.00;101024.59;7394525;19;20026;-68
2022/11/25 05:12:40;;;;;;;31.17;18.80;;;;;;;4.20;100.00;101021.09;7395729;19;20066;-67
2022/11/25 05:15:10;;;;;;;40.25;18.90;;;;;;;4.18;100.00;101017.59;7395347;19;20031;-67
2022/11/25 05:17:39;;;;;;;31.25;17.20;;;;;;;4.14;100.00;101016.69;7394842;19;20031;-68
2022/11/25 05:20:09;;;;;;;29.23;18.55;;;;;;;4.10;100.00;101020.13;7396090;19;20031;-67
2022/11/25 05:22:38;;;;;;;35.10;19.48;;;;;;;4.08;100.00;101020.13;7394508;19;20018;-66
2022/11/25 05:25:07;;;;;;;35.50;19.45;;;;;;;4.04;100.00;101026.13;7396670;19;20018;-66
2022/11/25 05:27:36;;;;;;;31.63;19.73;;;;;;;4.00;100.00;101026.09;7395645;19;20104;-67
2022/11/25 05:30:09;;;;;;;30.65;19.40;;;;;;;3.94;100.00;101031.22;7395984;19;20022;-67
2022/11/25 05:32:39;;;;;;;38.33;20.40;;;;;;;3.88;100.00;101027.69;7396182;19;20022;-67
2022/11/25 05:35:08;;;;;;;41.55;23.45;;;;;;;3.83;100.00;101028.50;7393971;19;20052;-67
2022/11/25 05:37:36;;;;;;;31.65;19.67;;;;;;;3.80;100.00;101028.47;7396028;19;20058;-67
2022/11/25 05:40:11;;;;;;;35.85;21.10;;;;;;;3.74;100.00;101035.34;7395186;19;20572;-67
2022/11/25 05:42:40;;;;;;;37.58;20.20;;;;;;;3.70;100.00;101028.38;7395149;19;20098;-67
2022/11/25 05:45:12;;;;;;;36.50;19.92;;;;;;;3.66;100.00;101025.72;7395145;19;20018;-66
2022/11/25 05:47:41;;;;;;;39.05;20.55;;;;;;;3.62;100.00;101035.19;7394116;19;20011;-67
2022/11/25 05:50:10;;;;;;;32.33;19.50;;;;;;;3.58;100.00;101033.44;7393978;19;20418;-68
2022/11/25 05:52:38;;;;;;;35.20;19.05;;;;;;;3.54;100.00;101029.91;7394172;19;20015;-67
2022/11/25 05:55:08;;;;;;;34.95;18.98;;;;;;;3.51;100.00;101036.78;7395612;19;20035;-67
2022/11/25 05:57:36;;;;;;;34.38;20.15;;;;;;;3.48;100.00;101042.81;7394457;19;20475;-66
2022/11/25 06:00:06;;;;;;;38.33;19.75;;;;;;;3.44;100.00;101038.44;7393867;19;20028;-68
2022/11/25 06:02:44;;;;;;;37.28;19.98;;;;;;;3.38;100.00;101039.22;7392788;19;20472;-67
2022/11/25 06:05:12;;;;;;;46.25;25.90;;;;;;;3.36;100.00;101046.13;7393285;19;20035;-68
2022/11/25 06:07:41;;;;;;;47.40;25.10;;;;;;;3.32;100.00;101044.34;7393589;19;20031;-68
2022/11/25 06:10:10;;;;;;;52.45;25.35;;;;;;;3.29;100.00;101054.69;7392369;19;20027;-67
2022/11/25 06:12:39;;;;;;;43.80;24.55;;;;;;;3.25;100.00;101053.75;7392724;19;20014;-70
2022/11/25 06:15:09;;;;;;;37.47;23.92;;;;;;;3.21;100.00;101059.78;7394878;19;20018;-68
2022/11/25 06:17:37;;;;;;;36.97;21.45;;;;;;;3.17;100.00;101062.28;7393516;19;20028;-68
2022/11/25 06:20:10;;;;;;;37.83;23.65;;;;;;;3.12;100.00;101062.22;7390953;19;20023;-68
2022/11/25 06:22:39;;;;;;;37.15;21.92;;;;;;;3.12;100.00;101070.00;7393290;19;20481;-66
2022/11/25 06:25:08;;;;;;;38.80;22.08;;;;;;;3.09;100.00;101069.97;7391378;19;20026;-68
2022/11/25 06:27:37;;;;;;;46.80;22.77;;;;;;;3.05;100.00;101066.44;7394175;19;20019;-67
2022/11/25 06:30:06;;;;;;;40.70;22.13;;;;;;;3.03;100.00;101069.88;7392588;19;20022;-68
2022/11/25 06:32:34;;;;;;;38.25;22.55;;;;;;;3.00;100.00;101057.75;7392642;19;20074;-66
2022/11/25 06:35:03;;;;;;;35.50;20.92;;;;;;;2.96;100.00;101058.56;7391937;19;20014;-66
2022/11/25 06:37:34;;;;;;;41.08;20.17;;;;;;;2.95;100.00;101063.72;7392190;19;20032;-68
2022/11/25 06:40:03;;;;;;;38.90;21.13;;;;;;;2.92;100.00;101064.56;7392455;19;20382;-67
2022/11/25 06:42:32;;;;;;;42.03;21.17;;;;;;;2.89;100.00;101061.91;7394320;19;20026;-67
2022/11/25 06:45:00;;;;;;;36.75;21.13;;;;;;;2.87;100.00;101071.34;7391728;19;20031;-67
2022/11/25 06:47:29;;;;;;;33.40;20.75;;;;;;;2.85;100.00;101073.94;7392018;19;20018;-67
2022/11/25 06:49:57;;;;;;;37.83;20.95;;;;;;;2.82;100.00;101078.19;7392084;19;20023;-66
2022/11/25 06:52:26;;;;;;;37.85;21.15;;;;;;;2.79;100.00;101071.25;7391813;19;20378;-67
2022/11/25 06:54:57;;;;;;;32.35;21.23;;;;;;;2.75;100.00;101072.91;7393459;19;20035;-67
2022/11/25 06:57:25;;;;;;;35.45;21.10;;;;;;;2.73;100.00;101076.31;7398723;19;20018;-68
2022/11/25 06:59:54;;;;;;;39.22;21.00;;;;;;;2.69;100.00;101071.94;7401053;19;20371;-67
2022/11/25 07:02:23;;;;;;;31.08;18.50;;;;;;;2.68;100.00;101078.88;7397949;19;20464;-66
2022/11/25 07:04:51;;;;;;;34.97;19.77;;;;;;;2.66;100.00;101074.50;7400593;19;20102;-67
2022/11/25 07:07:19;;;;;;;35.08;18.75;;;;;;;2.64;100.00;101081.38;7399954;19;20500;-67
2022/11/25 07:09:49;;;;;;;33.58;18.00;;;;;;;2.62;100.00;101089.13;7397203;19;20024;-66
2022/11/25 07:12:20;;;;;;;30.75;18.90;;;;;;;2.59;100.00;101089.06;7397927;19;20014;-66
2022/11/25 07:14:52;;;;;;;33.50;18.02;;;;;;;2.57;100.00;101093.34;7401196;19;20022;-67
2022/11/25 07:17:20;;;;;;;32.55;17.85;;;;;;;2.52;100.00;101090.69;7401005;19;20035;-67
2022/11/25 07:19:49;;;;;;;39.92;19.58;;;;;;;2.51;100.00;101086.34;7400336;19;20346;-67
2022/11/25 07:22:17;;;;;;;30.25;17.55;;;;;;;2.49;100.00;101093.22;7397671;19;20031;-68
2022/11/25 07:24:45;;;;;;;31.35;17.05;;;;;;;2.49;100.00;101094.94;7400802;19;20023;-69
2022/11/25 07:27:14;;;;;;;29.40;17.75;;;;;;;2.48;100.00;101090.59;7398860;19;20022;-67
2022/11/25 07:29:45;;;;;;;33.10;18.38;;;;;;;2.47;100.00;101100.09;7397122;19;20014;-68
2022/11/25 07:32:13;;;;;;;29.70;17.58;;;;;;;2.47;100.00;101099.22;7396743;19;20509;-67
2022/11/25 07:34:42;;;;;;;34.00;18.50;;;;;;;2.46;100.00;101108.69;7399315;19;20028;-66
2022/11/25 07:37:10;;;;;;;34.53;19.90;;;;;;;2.46;100.00;101108.69;7396568;19;20375;-67
2022/11/25 07:39:39;;;;;;;46.80;28.25;;;;;;;2.46;100.00;101102.66;7396710;19;20011;-67
2022/11/25 07:42:07;;;;;;;34.58;18.85;;;;;;;2.47;100.00;101112.19;7397204;19;20021;-67
2022/11/25 07:44:36;;;;;;;35.92;19.85;;;;;;;2.48;100.00;101103.53;7396566;19;20457;-66
2022/11/25 07:47:07;;;;;;;39.25;22.98;;;;;;;2.47;100.00;101102.69;7396464;19;20422;-67
2022/11/25 07:49:36;;;;;;;40.40;23.50;;;;;;;2.49;100.00;101107.88;7397273;19;20480;-66
2022/11/25 07:52:05;;;;;;;36.08;21.42;;;;;;;2.49;100.00;101108.78;7397136;19;20026;-67
2022/11/25 07:54:33;;;;;;;40.08;23.10;;;;;;;2.50;100.00;101107.03;7399345;19;20024;-68
2022/11/25 07:57:02;;;;;;;44.10;23.45;;;;;;;2.51;100.00;101107.06;7399211;19;20018;-67
2022/11/25 07:59:30;;;;;;;39.83;22.77;;;;;;;2.51;100.00;101111.38;7396851;19;20022;-67
2022/11/25 08:01:59;;;;;;;47.53;27.38;;;;;;;2.53;100.00;101107.97;7396420;19;20023;-67
2022/11/25 08:04:30;;;;;;;37.92;21.42;;;;;;;2.57;100.00;101106.31;7396690;19;20015;-67
2022/11/25 08:06:58;;;;;;;54.50;32.28;;;;;;;2.59;100.00;101109.78;7395749;19;20028;-67
2022/11/25 08:09:27;;;;;;;41.83;24.50;;;;;;;2.63;100.00;101118.47;7397097;19;20481;-67
2022/11/25 08:11:55;;;;;;;40.72;23.40;;;;;;;2.66;100.00;101122.00;7395828;19;20018;-67
2022/11/25 08:14:24;;;;;;;40.00;24.25;;;;;;;2.69;100.00;101122.06;7398156;19;20023;-67
2022/11/25 08:16:53;;;;;;;36.47;21.77;;;;;;;2.74;100.00;101124.72;7397595;19;20509;-67
2022/11/25 08:19:21;;;;;;;32.15;19.00;;;;;;;2.79;100.00;101135.16;7397488;19;20489;-69
2022/11/25 08:21:53;;;;;;;35.72;21.25;;;;;;;2.84;100.00;101130.94;7396306;19;20073;-65
2022/11/25 08:24:22;;;;;;;33.67;18.85;;;;;;;2.88;100.00;101135.31;7397768;19;20018;-67
2022/11/25 08:26:53;;;;;;;34.70;20.85;;;;;;;2.93;100.00;101137.13;7395470;19;20034;-67
2022/11/25 08:29:22;;;;;;;37.05;19.70;;;;;;;2.98;100.00;101137.19;7395596;19;20379;-68
2022/11/25 08:31:50;;;;;;;34.85;21.05;;;;;;;3.04;100.00;101139.03;7394798;19;20477;-67
2022/11/25 08:34:21;;;;;;;32.33;19.50;;;;;;;3.09;100.00;101137.38;7395658;19;20031;-66
2022/11/25 08:36:53;;;;;;;36.38;19.35;;;;;;;3.17;100.00;101140.97;7395957;19;20035;-67
2022/11/25 08:39:23;;;;;;;32.08;18.67;;;;;;;3.23;100.00;101130.66;7395508;19;20035;-66
2022/11/25 08:41:51;;;;;;;40.05;19.35;;;;;;;3.30;100.00;101135.94;7395593;19;20027;-66
2022/11/25 08:44:20;;;;;;;35.22;18.77;;;;;;;3.35;100.00;101137.75;7396789;19;20481;-68
2022/11/25 08:46:48;;;;;;;34.55;18.20;;;;;;;3.41;100.00;101135.25;7396480;19;20513;-66
2022/11/25 08:49:18;;;;;;;39.67;19.27;;;;;;;3.47;100.00;101133.59;7395081;19;20014;-66
2022/11/25 08:51:47;;;;;;;35.00;17.60;;;;;;;3.52;100.00;101131.94;7395056;19;20022;-67
2022/11/25 08:54:18;;;;;;;36.15;18.92;;;;;;;3.56;100.00;101131.13;7395163;19;20031;-67
2022/11/25 08:56:46;;;;;;;33.03;17.13;;;;;;;3.61;100.00;101126.84;7397087;19;20019;-67
2022/11/25 08:59:15;;;;;;;28.40;15.18;;;;;;;3.65;100.00;101133.84;7396828;19;20014;-67
2022/11/25 09:01:43;;;;;;;27.30;15.43;;;;;;;3.69;100.00;101127.84;7394885;19;20014;-68
2022/11/25 09:04:12;;;;;;;23.95;14.38;;;;;;;3.72;100.00;101122.69;7396335;19;20014;-68
2022/11/25 09:06:40;;;;;;;27.48;14.27;;;;;;;3.77;100.00;101124.44;7396569;19;20015;-68
2022/11/25 09:09:09;;;;;;;26.05;14.75;;;;;;;3.79;100.00;101120.16;7393968;19;20011;-68
2022/11/25 09:11:41;;;;;;;23.77;13.57;;;;;;;3.83;100.00;101128.00;7394091;19;20018;-68
2022/11/25 09:14:09;;;;;;;21.15;13.43;;;;;;;3.87;100.00;101124.59;7396229;19;20027;-68
2022/11/25 09:16:38;;;;;;;27.45;14.05;;;;;;;3.91;100.00;101128.97;7396437;19;20089;-66
2022/11/25 09:19:06;;;;;;;21.63;12.75;;;;;;;3.96;100.00;101129.03;7393576;19;20024;-68
2022/11/25 09:21:35;;;;;;;18.50;11.27;;;;;;;4.01;100.00;101122.16;7394381;19;20027;-67
2022/11/25 09:24:03;;;;;;;21.58;12.80;;;;;;;4.05;100.00;101129.13;7396002;19;20022;-67
2022/11/25 09:26:34;;;;;;;23.42;11.95;;;;;;;4.11;100.00;101117.06;7395961;19;20015;-67
2022/11/25 09:29:05;;;;;;;23.73;12.95;;;;;;;4.16;100.00;101120.59;7393771;19;20031;-67
2022/11/25 09:31:34;;;;;;;21.10;12.27;;;;;;;4.21;100.00;101130.16;7394611;19;20040;-67
2022/11/25 09:34:02;;;;;;;21.92;11.85;;;;;;;4.27;100.00;101123.28;7393696;19;20052;-67
2022/11/25 09:36:31;;;;;;;20.27;11.02;;;;;;;4.32;100.00;101130.28;7395147;19;20082;-67
2022/11/25 09:39:00;;;;;;;19.05;10.93;;;;;;;4.37;100.00;101126.00;7395402;19;20030;-66
2022/11/25 09:47:36;;;;;;;20.63;9.93;;;;;;;4.59;100.00;101115.81;7395464;19;20011;-66
2022/11/25 09:50:15;;;;;;;15.82;9.60;;;;;;;4.65;100.00;101121.06;7393243;19;20472;-66
2022/11/25 09:52:54;;;;;;;23.90;11.40;;;;;;;4.71;100.00;101115.94;7395641;19;20079;-65
2022/11/25 09:55:25;;;;;;;20.63;10.07;;;;;;;4.77;99.92;101122.03;7394475;19;20039;-64
2022/11/25 09:58:02;;;;;;;17.10;9.57;;;;;;;4.82;99.80;101131.59;7394747;19;20015;-66
2022/11/25 10:00:39;;;;;;;22.23;10.23;;;;;;;4.88;99.60;101128.19;7394851;19;20018;-66
2022/11/25 10:03:16;;;;;;;19.77;9.20;;;;;;;4.94;99.55;101132.56;7394085;19;20583;-66
2022/11/25 10:05:49;;;;;;;16.00;9.32;;;;;;;4.96;99.01;101128.25;7395801;19;20019;-66
2022/11/25 10:08:22;;;;;;;14.32;9.52;;;;;;;5.03;98.54;101122.22;7393456;19;20022;-66
2022/11/25 10:10:58;;;;;;;17.42;10.00;;;;;;;5.07;98.46;101129.19;7392526;19;20015;-66
2022/11/25 10:13:33;;;;;;;18.23;9.57;;;;;;;5.13;98.83;101136.16;7394432;19;20453;-66
2022/11/25 10:16:09;;;;;;;18.38;9.63;;;;;;;5.16;98.79;101126.66;7394000;19;20011;-66
2022/11/25 10:18:44;;;;;;;20.77;9.73;;;;;;;5.22;98.36;101129.28;7394920;19;20018;-66
2022/11/25 10:21:13;;;;;;;15.98;9.10;;;;;;;5.28;97.79;101132.78;7393345;19;20018;-66
2022/11/25 10:23:42;;;;;;;20.15;11.32;;;;;;;5.33;98.23;101126.78;7393493;19;20495;-67
2022/11/25 10:26:15;;;;;;;24.00;12.15;;;;;;;5.37;98.22;101127.63;7393441;19;20018;-67
2022/11/25 10:28:50;;;;;;;18.60;9.70;;;;;;;5.43;97.49;101126.81;7393229;19;20363;-67
2022/11/25 10:31:26;;;;;;;24.48;12.43;;;;;;;5.46;97.46;101119.91;7398525;19;20014;-65
2022/11/25 10:33:57;;;;;;;19.55;14.05;;;;;;;5.54;97.72;101122.53;7398759;19;20022;-65
2022/11/25 10:36:30;;;;;;;18.35;12.30;;;;;;;5.63;97.70;101124.31;7397879;19;20426;-67
2022/11/25 10:39:04;;;;;;;21.10;10.33;;;;;;;5.70;97.39;101119.16;7400703;19;20576;-66
2022/11/25 10:41:36;;;;;;;16.97;10.77;;;;;;;5.78;97.41;101110.50;7398010;19;20114;-66
2022/11/25 10:44:05;;;;;;;21.20;10.07;;;;;;;5.85;97.46;101112.25;7398359;19;20455;-68
2022/11/25 10:46:45;;;;;;;15.77;9.60;;;;;;;5.94;97.12;101114.00;7398068;19;20018;-67
2022/11/25 10:49:20;;;;;;;33.67;19.55;;;;;;;6.01;96.37;101121.03;7400453;19;20015;-69
2022/11/25 10:51:50;;;;;;;16.95;8.45;;;;;;;6.06;96.22;101116.69;7400318;19;20019;-71
2022/11/25 10:54:21;;;;;;;17.73;8.50;;;;;;;6.10;96.01;101123.66;7401711;19;20078;-68
2022/11/25 10:56:52;;;;;;;14.82;8.80;;;;;;;6.13;94.93;101118.47;7401137;19;20331;-69
2022/11/25 10:59:26;;;;;;;16.90;7.85;;;;;;;6.17;94.30;101120.19;7398651;19;20014;-68
2022/11/25 11:02:16;;;;;;;20.67;8.63;;;;;;;6.22;94.92;101117.63;7397623;19;20010;-66
2022/11/25 11:04:57;;;;;;;13.40;7.95;;;;;;;6.26;93.83;101124.56;7398856;19;20078;-68
2022/11/25 11:07:28;;;;;;;15.45;7.68;;;;;;;6.31;93.94;101122.84;7399591;19;20363;-68
2022/11/25 11:10:10;;;;;;;13.75;7.63;;;;;;;6.35;93.67;101121.97;7399395;19;20018;-68
2022/11/25 11:12:39;;;;;;;17.85;7.60;;;;;;;6.40;93.33;101111.56;7398419;19;20014;-68
2022/11/25 11:15:20;;;;;;;9.98;6.70;;;;;;;6.42;93.26;101112.44;7400393;19;20019;-67
2022/11/25 11:17:51;;;;;;;16.67;7.15;;;;;;;6.48;93.10;101114.19;7398246;19;20024;-67
2022/11/25 11:20:30;;;;;;;13.57;7.40;;;;;;;6.54;92.57;101119.41;7399810;19;20037;-67
2022/11/25 11:23:04;;;;;;;13.90;7.45;;;;;;;6.58;92.26;101118.53;7400979;19;20024;-68
2022/11/25 11:25:35;;;;;;;13.13;7.00;;;;;;;6.62;92.53;101109.84;7400306;19;20018;-67
2022/11/25 11:28:04;;;;;;;16.73;8.45;;;;;;;6.66;92.50;101111.59;7397356;19;20055;-67
2022/11/25 11:30:35;;;;;;;13.20;7.15;;;;;;;6.72;92.58;101115.06;7397421;19;20083;-67
2022/11/25 11:33:09;;;;;;;12.77;6.93;;;;;;;6.74;91.51;101114.19;7397458;19;20036;-68
2022/11/25 11:35:49;;;;;;;13.63;6.93;;;;;;;6.79;91.59;101114.22;7402421;19;20501;-68